createdAt,value
2018-03-02T00:01:37.624Z,12.6
2018-03-02T00:11:36.584Z,13.1
2018-03-02T00:21:35.894Z,12.6
2018-03-02T00:31:35.265Z,13.1
2018-03-02T00:41:34.429Z,12.9
2018-03-02T00:51:33.431Z,12.8
2018-03-02T01:01:32.854Z,12.8
2018-03-02T01:11:31.798Z,12.7
2018-03-02T01:21:31.051Z,13
2018-03-02T01:31:30.244Z,12.4
2018-03-02T01:41:29.355Z,13
2018-03-02T01:51:28.723Z,13.2
2018-03-02T02:01:28.093Z,12.9
2018-03-02T02:11:26.950Z,12.9
2018-03-02T02:21:26.206Z,13.1
2018-03-02T02:31:25.656Z,13.1
2018-03-02T02:41:24.935Z,13.1
2018-03-02T02:51:24.039Z,12.8
2018-03-02T03:01:23.065Z,12.5
2018-03-02T03:11:22.448Z,12.9
2018-03-02T03:21:21.500Z,13.2
2018-03-02T03:31:20.623Z,12.6
2018-03-02T03:41:19.964Z,13
2018-03-02T03:51:19.262Z,13.1
2018-03-02T04:01:18.197Z,13.1
2018-03-02T04:11:17.635Z,12.6
2018-03-02T04:21:16.559Z,12.7
2018-03-02T04:31:15.848Z,12.6
2018-03-02T04:41:14.965Z,12.5
2018-03-02T04:51:14.320Z,13.2
2018-03-02T05:01:13.387Z,12.7
2018-03-02T05:11:12.576Z,12.4
2018-03-02T05:21:12.140Z,12.6
2018-03-02T05:31:11.132Z,13
2018-03-02T05:41:10.313Z,13.1
2018-03-02T05:51:09.418Z,12.9
2018-03-02T06:01:08.645Z,12.8
2018-03-02T06:11:07.789Z,12.6
2018-03-02T06:21:07.003Z,12.7
2018-03-02T06:31:06.324Z,13.2
2018-03-02T06:41:05.573Z,12.9
2018-03-02T06:51:04.634Z,13.1
2018-03-02T07:01:03.911Z,13
2018-03-02T07:11:03.013Z,13.6
2018-03-02T07:21:02.227Z,13.2
2018-03-02T07:31:01.426Z,13.9
2018-03-02T07:41:00.748Z,13.4
2018-03-02T07:50:59.870Z,13.5
2018-03-02T08:00:59.121Z,13.1
2018-03-02T08:10:58.488Z,14.3
2018-03-02T08:20:57.402Z,14.1
2018-03-02T08:30:56.622Z,14.6
2018-03-02T08:40:56.339Z,14.6
2018-03-02T08:50:55.268Z,14
2018-03-02T09:00:54.224Z,14.2
2018-03-02T09:10:53.750Z,14
2018-03-02T09:20:52.688Z,14.6
2018-03-02T09:30:51.880Z,14
2018-03-02T09:40:51.193Z,13.9
2018-03-02T09:50:50.468Z,14.1
2018-03-02T10:00:49.381Z,14.4
2018-03-02T10:10:48.677Z,14
2018-03-02T10:20:47.791Z,14.6
2018-03-02T10:30:47.072Z,14.6
2018-03-02T10:40:46.261Z,14.7
2018-03-02T10:50:45.393Z,14.3
2018-03-02T11:00:44.603Z,13.8
2018-03-02T11:10:43.808Z,14
2018-03-02T11:20:43.145Z,14.7
2018-03-02T11:30:42.548Z,14.4
2018-03-02T11:40:41.549Z,14.2
2018-03-02T11:50:40.644Z,14.3
2018-03-02T12:00:40.087Z,13.9
2018-03-02T12:10:39.040Z,14.1
2018-03-02T12:20:38.249Z,14.1
2018-03-02T12:30:37.474Z,14.4
2018-03-02T12:40:36.598Z,14.7
2018-03-02T12:50:35.793Z,14.4
2018-03-02T13:00:35.074Z,14.4
2018-03-02T13:10:34.334Z,14.1
2018-03-02T13:20:33.783Z,13.9
2018-03-02T13:30:32.677Z,14.1
2018-03-02T13:40:31.807Z,14.6
2018-03-02T13:50:31.024Z,14.3
2018-03-02T14:00:30.234Z,12.9
2018-03-02T14:10:29.435Z,12.8
2018-03-02T14:20:28.675Z,13.3
2018-03-02T14:30:28.084Z,13
2018-03-02T14:40:27.193Z,12.6
2018-03-02T14:50:26.206Z,12.6
2018-03-02T15:00:25.450Z,12.8
2018-03-02T15:10:24.933Z,13
2018-03-02T15:20:23.809Z,12.9
2018-03-02T15:30:23.153Z,12.6
2018-03-02T15:40:22.496Z,12.4
2018-03-02T15:50:21.539Z,12.8
2018-03-02T16:00:20.744Z,13.1
2018-03-02T16:10:19.852Z,13
2018-03-02T16:20:19.044Z,13.1
2018-03-02T16:30:18.334Z,13.1
2018-03-02T16:40:17.474Z,12.9
2018-03-02T16:50:16.619Z,13.1
2018-03-02T17:00:15.936Z,12.9
2018-03-02T17:10:15.071Z,12.7
2018-03-02T17:20:14.268Z,12.5
2018-03-02T17:30:13.481Z,12.4
2018-03-02T17:40:12.732Z,12.8
2018-03-02T17:50:12.174Z,13
2018-03-02T18:00:11.393Z,12.5
2018-03-02T18:10:10.411Z,12.9
2018-03-02T18:20:09.732Z,12.7
2018-03-02T18:30:08.645Z,12.4
2018-03-02T18:40:07.990Z,13
2018-03-02T18:50:07.201Z,12.4
2018-03-02T19:00:06.820Z,13.1
2018-03-02T19:10:05.711Z,13.2
2018-03-02T19:20:05.132Z,12.5
2018-03-02T19:30:04.186Z,12.5
2018-03-02T19:40:03.360Z,12.9
2018-03-02T19:50:02.402Z,12.8
2018-03-02T20:00:02.201Z,12.9
2018-03-02T20:10:00.736Z,12.4
2018-03-02T20:20:00.204Z,12.8
2018-03-02T20:29:59.252Z,12.7
2018-03-02T20:39:58.349Z,13.2
2018-03-02T20:49:57.859Z,12.7
2018-03-02T20:59:56.893Z,12.6
2018-03-02T21:09:55.972Z,12.7
2018-03-02T21:19:55.598Z,12.9
2018-03-02T21:29:54.652Z,13.1
2018-03-02T21:39:54.213Z,12.8
2018-03-02T21:49:52.867Z,13.1
2018-03-02T21:59:52.037Z,12.8
2018-03-02T22:09:51.218Z,12.9
